sensor_id;sensor_type;location;lat;lon;timestamp;pressure;altitude;pressure_sealevel;temperature;humidity
32324;BME280;25666;44.350;9.222;2024-01-27T00:02:11;102762.28;;;12.58;100.00
32324;BME280;25666;44.350;9.222;2024-01-27T00:04:43;102764.38;;;12.53;100.00
32324;BME280;25666;44.350;9.222;2024-01-27T00:07:08;102760.09;;;12.55;100.00
32324;BME280;25666;44.350;9.222;2024-01-27T00:09:34;102756.47;;;12.55;100.00
32324;BME280;25666;44.350;9.222;2024-01-27T00:12:04;102758.25;;;12.51;100.00
32324;BME280;25666;44.350;9.222;2024-01-27T00:14:30;102757.03;;;12.43;100.00
32324;BME280;25666;44.350;9.222;2024-01-27T00:17:25;102762.50;;;12.48;100.00
32324;BME280;25666;44.350;9.222;2024-01-27T00:19:55;102760.19;;;12.50;100.00
32324;BME280;25666;44.350;9.222;2024-01-27T00:22:23;102754.63;;;12.50;100.00
32324;BME280;25666;44.350;9.222;2024-01-27T00:24:56;102753.50;;;12.51;100.00
32324;BME280;25666;44.350;9.222;2024-01-27T00:27:31;102754.94;;;12.49;100.00
32324;BME280;25666;44.350;9.222;2024-01-27T00:30:11;102751.66;;;12.47;100.00
32324;BME280;25666;44.350;9.222;2024-01-27T00:32:39;102755.59;;;12.46;100.00
32324;BME280;25666;44.350;9.222;2024-01-27T00:35:13;102756.09;;;12.48;100.00
32324;BME280;25666;44.350;9.222;2024-01-27T00:37:40;102762.28;;;12.45;100.00
32324;BME280;25666;44.350;9.222;2024-01-27T00:40:10;102754.25;;;12.43;100.00
32324;BME280;25666;44.350;9.222;2024-01-27T00:42:37;102752.78;;;12.46;100.00
32324;BME280;25666;44.350;9.222;2024-01-27T00:45:07;102753.63;;;12.46;100.00
32324;BME280;25666;44.350;9.222;2024-01-27T00:47:33;102763.97;;;12.46;100.00
32324;BME280;25666;44.350;9.222;2024-01-27T00:49:59;102767.88;;;12.45;100.00
32324;BME280;25666;44.350;9.222;2024-01-27T00:52:26;102772.47;;;12.27;100.00
32324;BME280;25666;44.350;9.222;2024-01-27T00:54:51;102775.16;;;12.32;100.00
32324;BME280;25666;44.350;9.222;2024-01-27T00:57:17;102768.22;;;12.29;100.00
32324;BME280;25666;44.350;9.222;2024-01-27T00:59:59;102772.06;;;12.20;100.00
32324;BME280;25666;44.350;9.222;2024-01-27T01:02:28;102776.41;;;12.26;100.00
32324;BME280;25666;44.350;9.222;2024-01-27T01:04:57;102775.78;;;12.29;100.00
32324;BME280;25666;44.350;9.222;2024-01-27T01:07:23;102768.97;;;12.21;100.00
32324;BME280;25666;44.350;9.222;2024-01-27T01:10:04;102762.78;;;12.24;100.00
32324;BME280;25666;44.350;9.222;2024-01-27T01:12:34;102773.81;;;12.16;100.00
32324;BME280;25666;44.350;9.222;2024-01-27T01:14:59;102771.78;;;12.21;100.00
32324;BME280;25666;44.350;9.222;2024-01-27T01:17:28;102775.56;;;12.25;100.00
32324;BME280;25666;44.350;9.222;2024-01-27T01:20:26;102776.19;;;12.22;100.00
32324;BME280;25666;44.350;9.222;2024-01-27T01:22:54;102773.41;;;12.22;100.00
32324;BME280;25666;44.350;9.222;2024-01-27T01:25:33;102781.69;;;12.14;100.00
32324;BME280;25666;44.350;9.222;2024-01-27T01:28:02;102786.16;;;12.15;100.00
32324;BME280;25666;44.350;9.222;2024-01-27T01:30:29;102789.75;;;12.15;100.00
32324;BME280;25666;44.350;9.222;2024-01-27T01:32:55;102788.19;;;12.09;100.00
32324;BME280;25666;44.350;9.222;2024-01-27T01:35:21;102788.19;;;12.09;100.00
32324;BME280;25666;44.350;9.222;2024-01-27T01:37:47;102797.09;;;12.11;100.00
32324;BME280;25666;44.350;9.222;2024-01-27T01:40:37;102784.69;;;12.17;100.00
32324;BME280;25666;44.350;9.222;2024-01-27T01:43:03;102805.06;;;12.18;100.00
32324;BME280;25666;44.350;9.222;2024-01-27T01:45:34;102804.13;;;12.22;100.00
32324;BME280;25666;44.350;9.222;2024-01-27T01:48:03;102798.66;;;12.17;100.00
32324;BME280;25666;44.350;9.222;2024-01-27T01:50:36;102807.66;;;12.14;100.00
32324;BME280;25666;44.350;9.222;2024-01-27T01:53:06;102807.84;;;12.18;100.00
32324;BME280;25666;44.350;9.222;2024-01-27T01:55:37;102805.34;;;12.16;100.00
32324;BME280;25666;44.350;9.222;2024-01-27T01:58:04;102800.00;;;12.20;100.00
32324;BME280;25666;44.350;9.222;2024-01-27T02:00:30;102805.34;;;12.16;100.00
32324;BME280;25666;44.350;9.222;2024-01-27T02:02:55;102798.66;;;12.17;100.00
32324;BME280;25666;44.350;9.222;2024-01-27T02:05:21;102800.41;;;12.13;100.00
32324;BME280;25666;44.350;9.222;2024-01-27T02:07:47;102800.91;;;12.15;100.00
32324;BME280;25666;44.350;9.222;2024-01-27T02:10:17;102798.75;;;12.12;100.00
32324;BME280;25666;44.350;9.222;2024-01-27T02:12:51;102798.13;;;12.15;100.00
32324;BME280;25666;44.350;9.222;2024-01-27T02:15:32;102799.47;;;12.18;100.00
32324;BME280;25666;44.350;9.222;2024-01-27T02:18:01;102792.75;;;12.19;100.00
32324;BME280;25666;44.350;9.222;2024-01-27T02:20:27;102793.91;;;12.18;100.00
32324;BME280;25666;44.350;9.222;2024-01-27T02:22:59;102797.19;;;12.20;100.00
32324;BME280;25666;44.350;9.222;2024-01-27T02:25:32;102805.06;;;12.18;100.00
32324;BME280;25666;44.350;9.222;2024-01-27T02:28:06;102796.56;;;12.23;100.00
32324;BME280;25666;44.350;9.222;2024-01-27T02:30:36;102796.56;;;12.23;100.00
32324;BME280;25666;44.350;9.222;2024-01-27T02:33:05;102808.47;;;12.15;100.00
32324;BME280;25666;44.350;9.222;2024-01-27T02:35:31;102804.72;;;12.19;100.00
32324;BME280;25666;44.350;9.222;2024-01-27T02:38:00;102803.28;;;12.22;100.00
32324;BME280;25666;44.350;9.222;2024-01-27T02:40:26;102804.44;;;12.07;100.00
32324;BME280;25666;44.350;9.222;2024-01-27T02:42:55;102797.00;;;12.03;100.00
32324;BME280;25666;44.350;9.222;2024-01-27T02:45:24;102798.13;;;12.02;100.00
32324;BME280;25666;44.350;9.222;2024-01-27T02:47:55;102798.56;;;12.09;100.00
32324;BME280;25666;44.350;9.222;2024-01-27T02:50:24;102792.66;;;12.10;100.00
32324;BME280;25666;44.350;9.222;2024-01-27T02:52:50;102790.56;;;12.16;100.00
32324;BME280;25666;44.350;9.222;2024-01-27T02:55:16;102793.06;;;12.17;100.00
32324;BME280;25666;44.350;9.222;2024-01-27T02:57:42;102789.94;;;12.19;100.00
32324;BME280;25666;44.350;9.222;2024-01-27T03:00:17;102787.78;;;12.16;100.00
32324;BME280;25666;44.350;9.222;2024-01-27T03:02:55;102784.97;;;12.16;100.00
32324;BME280;25666;44.350;9.222;2024-01-27T03:05:24;102784.16;;;12.15;100.00
32324;BME280;25666;44.350;9.222;2024-01-27T03:07:50;102779.09;;;12.04;100.00
32324;BME280;25666;44.350;9.222;2024-01-27T03:10:23;102790.28;;;12.04;100.00
32324;BME280;25666;44.350;9.222;2024-01-27T03:12:52;102788.91;;;11.88;100.00
32324;BME280;25666;44.350;9.222;2024-01-27T03:15:24;102791.72;;;11.88;100.00
32324;BME280;25666;44.350;9.222;2024-01-27T03:17:50;102785.34;;;11.87;100.00
32324;BME280;25666;44.350;9.222;2024-01-27T03:20:21;102779.31;;;11.94;100.00
32324;BME280;25666;44.350;9.222;2024-01-27T03:22:47;102784.72;;;11.90;100.00
32324;BME280;25666;44.350;9.222;2024-01-27T03:25:13;102787.19;;;11.92;100.00
32324;BME280;25666;44.350;9.222;2024-01-27T03:27:39;102790.59;;;11.89;100.00
32324;BME280;25666;44.350;9.222;2024-01-27T03:30:08;102789.13;;;11.91;100.00
32324;BME280;25666;44.350;9.222;2024-01-27T03:32:37;102787.19;;;11.92;100.00
32324;BME280;25666;44.350;9.222;2024-01-27T03:35:04;102789.06;;;11.96;100.00
32324;BME280;25666;44.350;9.222;2024-01-27T03:37:29;102788.50;;;11.94;100.00
32324;BME280;25666;44.350;9.222;2024-01-27T03:39:55;102791.00;;;11.96;100.00
32324;BME280;25666;44.350;9.222;2024-01-27T03:42:21;102785.94;;;11.98;100.00
32324;BME280;25666;44.350;9.222;2024-01-27T03:44:46;102792.63;;;11.97;100.00
32324;BME280;25666;44.350;9.222;2024-01-27T03:47:13;102787.38;;;11.95;100.00
32324;BME280;25666;44.350;9.222;2024-01-27T03:49:39;102791.09;;;11.91;100.00
32324;BME280;25666;44.350;9.222;2024-01-27T03:52:05;102800.63;;;11.90;100.00
32324;BME280;25666;44.350;9.222;2024-01-27T03:54:30;102796.56;;;11.82;100.00
32324;BME280;25666;44.350;9.222;2024-01-27T03:56:56;102802.97;;;11.82;100.00
32324;BME280;25666;44.350;9.222;2024-01-27T03:59:21;102801.22;;;11.73;100.00
32324;BME280;25666;44.350;9.222;2024-01-27T04:01:47;102796.34;;;11.78;100.00
32324;BME280;25666;44.350;9.222;2024-01-27T04:04:13;102801.44;;;11.76;100.00
32324;BME280;25666;44.350;9.222;2024-01-27T04:06:40;102801.84;;;11.70;100.00
32324;BME280;25666;44.350;9.222;2024-01-27T04:09:06;102792.09;;;11.67;100.00
32324;BME280;25666;44.350;9.222;2024-01-27T04:11:34;102801.84;;;11.70;100.00
32324;BME280;25666;44.350;9.222;2024-01-27T04:14:01;102800.75;;;11.66;100.00
32324;BME280;25666;44.350;9.222;2024-01-27T04:16:27;102806.03;;;11.67;100.00
32324;BME280;25666;44.350;9.222;2024-01-27T04:18:53;102815.63;;;11.61;100.00
32324;BME280;25666;44.350;9.222;2024-01-27T04:21:18;102811.41;;;11.64;100.00
32324;BME280;25666;44.350;9.222;2024-01-27T04:23:44;102818.72;;;11.60;100.00
32324;BME280;25666;44.350;9.222;2024-01-27T04:26:09;102813.06;;;11.65;100.00
32324;BME280;25666;44.350;9.222;2024-01-27T04:28:36;102815.03;;;11.64;100.00
32324;BME280;25666;44.350;9.222;2024-01-27T04:31:02;102815.84;;;11.65;100.00
32324;BME280;25666;44.350;9.222;2024-01-27T04:33:27;102815.03;;;11.64;100.00
32324;BME280;25666;44.350;9.222;2024-01-27T04:35:53;102813.34;;;11.63;100.00
32324;BME280;25666;44.350;9.222;2024-01-27T04:38:18;102816.66;;;11.65;100.00
32324;BME280;25666;44.350;9.222;2024-01-27T04:40:44;102811.03;;;11.70;100.00
32324;BME280;25666;44.350;9.222;2024-01-27T04:43:09;102813.25;;;11.68;100.00
32324;BME280;25666;44.350;9.222;2024-01-27T04:45:35;102803.88;;;11.64;100.00
32324;BME280;25666;44.350;9.222;2024-01-27T04:48:00;102811.03;;;11.70;100.00
32324;BME280;25666;44.350;9.222;2024-01-27T04:50:27;102815.03;;;11.64;100.00
32324;BME280;25666;44.350;9.222;2024-01-27T04:52:52;102812.53;;;11.63;100.00
32324;BME280;25666;44.350;9.222;2024-01-27T04:55:18;102818.31;;;11.66;100.00
32324;BME280;25666;44.350;9.222;2024-01-27T04:57:43;102819.25;;;11.62;100.00
32324;BME280;25666;44.350;9.222;2024-01-27T05:00:09;102822.13;;;11.57;100.00
32324;BME280;25666;44.350;9.222;2024-01-27T05:02:41;102822.66;;;11.59;100.00
32324;BME280;25666;44.350;9.222;2024-01-27T05:05:07;102833.91;;;11.54;100.00
32324;BME280;25666;44.350;9.222;2024-01-27T05:07:33;102827.47;;;11.53;100.00
32324;BME280;25666;44.350;9.222;2024-01-27T05:09:59;102835.13;;;11.48;100.00
32324;BME280;25666;44.350;9.222;2024-01-27T05:12:24;102840.91;;;11.51;100.00
32324;BME280;25666;44.350;9.222;2024-01-27T05:14:50;102843.38;;;11.53;100.00
32324;BME280;25666;44.350;9.222;2024-01-27T05:17:15;102850.56;;;11.59;100.00
32324;BME280;25666;44.350;9.222;2024-01-27T05:19:41;102845.44;;;11.47;100.00
32324;BME280;25666;44.350;9.222;2024-01-27T05:22:06;102852.91;;;11.52;100.00
32324;BME280;25666;44.350;9.222;2024-01-27T05:24:32;102848.56;;;11.46;100.00
32324;BME280;25666;44.350;9.222;2024-01-27T05:26:58;102843.09;;;11.54;100.00
32324;BME280;25666;44.350;9.222;2024-01-27T05:29:25;102850.34;;;11.55;100.00
32324;BME280;25666;44.350;9.222;2024-01-27T05:31:51;102860.16;;;11.34;100.00
32324;BME280;25666;44.350;9.222;2024-01-27T05:34:17;102861.56;;;11.50;100.00
32324;BME280;25666;44.350;9.222;2024-01-27T05:36:42;102862.50;;;11.46;100.00
32324;BME280;25666;44.350;9.222;2024-01-27T05:39:08;102866.13;;;11.46;100.00
32324;BME280;25666;44.350;9.222;2024-01-27T05:41:33;102872.22;;;11.48;100.00
32324;BME280;25666;44.350;9.222;2024-01-27T05:43:59;102872.38;;;11.38;100.00
32324;BME280;25666;44.350;9.222;2024-01-27T05:46:25;102878.88;;;11.34;100.00
32324;BME280;25666;44.350;9.222;2024-01-27T05:48:51;102890.84;;;11.34;100.00
32324;BME280;25666;44.350;9.222;2024-01-27T05:51:22;102893.72;;;11.29;100.00
32324;BME280;25666;44.350;9.222;2024-01-27T05:53:49;102895.66;;;11.28;100.00
32324;BME280;25666;44.350;9.222;2024-01-27T05:56:14;102896.94;;;11.36;100.00
32324;BME280;25666;44.350;9.222;2024-01-27T05:58:40;102896.72;;;11.33;100.00
32324;BME280;25666;44.350;9.222;2024-01-27T06:01:06;102904.94;;;11.43;100.00
32324;BME280;25666;44.350;9.222;2024-01-27T06:03:32;102903.03;;;11.38;100.00
32324;BME280;25666;44.350;9.222;2024-01-27T06:05:57;102904.38;;;11.41;100.00
32324;BME280;25666;44.350;9.222;2024-01-27T06:08:23;102898.59;;;11.37;100.00
32324;BME280;25666;44.350;9.222;2024-01-27T06:10:48;102906.28;;;11.45;100.00
32324;BME280;25666;44.350;9.222;2024-01-27T06:13:14;102914.56;;;11.50;100.00
32324;BME280;25666;44.350;9.222;2024-01-27T06:15:40;102912.31;;;11.52;100.00
32324;BME280;25666;44.350;9.222;2024-01-27T06:18:05;102913.94;;;11.53;100.00
32324;BME280;25666;44.350;9.222;2024-01-27T06:20:31;102918.69;;;11.53;100.00
32324;BME280;25666;44.350;9.222;2024-01-27T06:22:56;102923.16;;;11.54;100.00
32324;BME280;25666;44.350;9.222;2024-01-27T06:25:23;102923.84;;;11.46;100.00
32324;BME280;25666;44.350;9.222;2024-01-27T06:27:48;102926.25;;;11.52;100.00
32324;BME280;25666;44.350;9.222;2024-01-27T06:30:14;102923.47;;;11.52;100.00
32324;BME280;25666;44.350;9.222;2024-01-27T06:32:41;102921.47;;;11.53;100.00
32324;BME280;25666;44.350;9.222;2024-01-27T06:35:07;102919.84;;;11.52;100.00
32324;BME280;25666;44.350;9.222;2024-01-27T06:37:32;102919.84;;;11.52;100.00
32324;BME280;25666;44.350;9.222;2024-01-27T06:39:58;102934.06;;;11.50;100.00
32324;BME280;25666;44.350;9.222;2024-01-27T06:42:24;102931.84;;;11.52;100.00
32324;BME280;25666;44.350;9.222;2024-01-27T06:44:49;102929.84;;;11.53;100.00
32324;BME280;25666;44.350;9.222;2024-01-27T06:47:15;102936.78;;;11.55;100.00
32324;BME280;25666;44.350;9.222;2024-01-27T06:49:41;102935.75;;;11.51;100.00
32324;BME280;25666;44.350;9.222;2024-01-27T06:52:06;102938.75;;;11.55;100.00
32324;BME280;25666;44.350;9.222;2024-01-27T06:54:32;102940.25;;;11.47;100.00
32324;BME280;25666;44.350;9.222;2024-01-27T06:56:59;102935.91;;;11.41;100.00
32324;BME280;25666;44.350;9.222;2024-01-27T06:59:25;102942.75;;;11.49;100.00
32324;BME280;25666;44.350;9.222;2024-01-27T07:01:50;102944.50;;;11.45;100.00
32324;BME280;25666;44.350;9.222;2024-01-27T07:04:16;102940.88;;;11.44;100.00
32324;BME280;25666;44.350;9.222;2024-01-27T07:06:42;102949.16;;;11.49;100.00
32324;BME280;25666;44.350;9.222;2024-01-27T07:09:08;102955.19;;;11.38;100.00
32324;BME280;25666;44.350;9.222;2024-01-27T07:11:35;102951.63;;;11.51;100.00
32324;BME280;25666;44.350;9.222;2024-01-27T07:14:01;102952.47;;;11.51;100.00
32324;BME280;25666;44.350;9.222;2024-01-27T07:16:27;102959.63;;;11.57;100.00
32324;BME280;25666;44.350;9.222;2024-01-27T07:18:52;102954.19;;;11.66;100.00
32324;BME280;25666;44.350;9.222;2024-01-27T07:21:18;102959.16;;;11.69;100.00
32324;BME280;25666;44.350;9.222;2024-01-27T07:23:43;102959.72;;;11.71;100.00
32324;BME280;25666;44.350;9.222;2024-01-27T07:26:10;102962.88;;;11.83;100.00
32324;BME280;25666;44.350;9.222;2024-01-27T07:28:35;102962.19;;;11.72;100.00
32324;BME280;25666;44.350;9.222;2024-01-27T07:31:01;102967.50;;;11.88;100.00
32324;BME280;25666;44.350;9.222;2024-01-27T07:33:27;102976.72;;;11.88;100.00
32324;BME280;25666;44.350;9.222;2024-01-27T07:35:52;102970.91;;;11.85;100.00
32324;BME280;25666;44.350;9.222;2024-01-27T07:38:18;102965.34;;;11.85;100.00
32324;BME280;25666;44.350;9.222;2024-01-27T07:40:43;102973.09;;;11.88;100.00
32324;BME280;25666;44.350;9.222;2024-01-27T07:43:09;102973.03;;;11.93;100.00
32324;BME280;25666;44.350;9.222;2024-01-27T07:45:34;102977.31;;;11.85;100.00
32324;BME280;25666;44.350;9.222;2024-01-27T07:48:00;102968.97;;;11.85;100.00
32324;BME280;25666;44.350;9.222;2024-01-27T07:50:26;102964.09;;;11.77;100.00
32324;BME280;25666;44.350;9.222;2024-01-27T07:52:51;102980.44;;;11.84;100.00
32324;BME280;25666;44.350;9.222;2024-01-27T07:55:17;102976.47;;;11.71;100.00
32324;BME280;25666;44.350;9.222;2024-01-27T07:57:43;102969.94;;;11.75;100.00
32324;BME280;25666;44.350;9.222;2024-01-27T08:00:08;102975.25;;;11.77;100.00
32324;BME280;25666;44.350;9.222;2024-01-27T08:02:34;102964.59;;;11.79;100.00
32324;BME280;25666;44.350;9.222;2024-01-27T08:05:00;102970.69;;;11.81;100.00
32324;BME280;25666;44.350;9.222;2024-01-27T08:07:25;102973.28;;;11.77;100.00
32324;BME280;25666;44.350;9.222;2024-01-27T08:09:51;102971.63;;;11.76;100.00
32324;BME280;25666;44.350;9.222;2024-01-27T08:12:16;102969.66;;;11.77;100.00
32324;BME280;25666;44.350;9.222;2024-01-27T08:14:43;102970.41;;;11.82;100.00
32324;BME280;25666;44.350;9.222;2024-01-27T08:17:08;102971.63;;;11.76;100.00
32324;BME280;25666;44.350;9.222;2024-01-27T08:19:34;102976.69;;;11.74;100.00
32324;BME280;25666;44.350;9.222;2024-01-27T08:21:59;102975.25;;;11.77;100.00
32324;BME280;25666;44.350;9.222;2024-01-27T08:24:25;102975.47;;;11.80;100.00
32324;BME280;25666;44.350;9.222;2024-01-27T08:26:51;102975.16;;;11.82;100.00
32324;BME280;25666;44.350;9.222;2024-01-27T08:29:16;102968.72;;;11.81;100.00
32324;BME280;25666;44.350;9.222;2024-01-27T08:31:42;102966.78;;;11.82;100.00
32324;BME280;25666;44.350;9.222;2024-01-27T08:34:07;102978.16;;;11.86;100.00
32324;BME280;25666;44.350;9.222;2024-01-27T08:36:34;102976.66;;;11.93;100.00
32324;BME280;25666;44.350;9.222;2024-01-27T08:39:00;102967.72;;;11.91;100.00
32324;BME280;25666;44.350;9.222;2024-01-27T08:41:25;102968.19;;;11.98;100.00
32324;BME280;25666;44.350;9.222;2024-01-27T08:43:51;102970.75;;;11.95;100.00
32324;BME280;25666;44.350;9.222;2024-01-27T08:46:16;102982.16;;;11.79;100.00
32324;BME280;25666;44.350;9.222;2024-01-27T08:48:45;102974.75;;;11.89;100.00
32324;BME280;25666;44.350;9.222;2024-01-27T08:51:10;102986.22;;;11.68;100.00
32324;BME280;25666;44.350;9.222;2024-01-27T08:53:38;102974.19;;;11.73;100.00
32324;BME280;25666;44.350;9.222;2024-01-27T08:56:04;102984.34;;;11.82;100.00
32324;BME280;25666;44.350;9.222;2024-01-27T08:58:31;102990.22;;;11.81;100.00
32324;BME280;25666;44.350;9.222;2024-01-27T09:00:56;102991.00;;;11.87;100.00
32324;BME280;25666;44.350;9.222;2024-01-27T09:03:22;102993.47;;;11.88;100.00
32324;BME280;25666;44.350;9.222;2024-01-27T09:05:47;102989.78;;;11.93;100.00
32324;BME280;25666;44.350;9.222;2024-01-27T09:08:14;102983.47;;;12.01;100.00
32324;BME280;25666;44.350;9.222;2024-01-27T09:10:41;102983.09;;;12.07;100.00
32324;BME280;25666;44.350;9.222;2024-01-27T09:13:06;102981.25;;;12.16;100.00
32324;BME280;25666;44.350;9.222;2024-01-27T09:15:32;102974.97;;;12.24;100.00
32324;BME280;25666;44.350;9.222;2024-01-27T09:17:57;102981.78;;;12.18;100.00
32324;BME280;25666;44.350;9.222;2024-01-27T09:20:23;102981.78;;;12.32;100.00
32324;BME280;25666;44.350;9.222;2024-01-27T09:22:48;102982.84;;;12.36;100.00
32324;BME280;25666;44.350;9.222;2024-01-27T09:25:16;102983.28;;;12.43;100.00
32324;BME280;25666;44.350;9.222;2024-01-27T09:27:42;102984.91;;;12.44;100.00
32324;BME280;25666;44.350;9.222;2024-01-27T09:30:08;102982.03;;;12.49;100.00
32324;BME280;25666;44.350;9.222;2024-01-27T09:32:33;102984.00;;;12.49;100.00
32324;BME280;25666;44.350;9.222;2024-01-27T09:34:59;102988.63;;;12.53;100.00
32324;BME280;25666;44.350;9.222;2024-01-27T09:37:24;102978.91;;;12.51;100.00
32324;BME280;25666;44.350;9.222;2024-01-27T09:39:50;102982.44;;;12.56;100.00
32324;BME280;25666;44.350;9.222;2024-01-27T09:42:20;102981.72;;;12.64;100.00
32324;BME280;25666;44.350;9.222;2024-01-27T09:44:48;102987.53;;;12.68;100.00
32324;BME280;25666;44.350;9.222;2024-01-27T09:47:15;102985.56;;;12.68;100.00
32324;BME280;25666;44.350;9.222;2024-01-27T09:49:42;102981.81;;;12.73;100.00
32324;BME280;25666;44.350;9.222;2024-01-27T09:52:08;102983.69;;;12.77;100.00
32324;BME280;25666;44.350;9.222;2024-01-27T09:54:35;102985.03;;;12.80;100.00
32324;BME280;25666;44.350;9.222;2024-01-27T09:57:02;102988.03;;;12.83;100.00
32324;BME280;25666;44.350;9.222;2024-01-27T09:59:28;102986.25;;;12.87;100.00
32324;BME280;25666;44.350;9.222;2024-01-27T10:01:56;102989.78;;;12.79;100.00
32324;BME280;25666;44.350;9.222;2024-01-27T10:04:25;102988.13;;;12.78;100.00
32324;BME280;25666;44.350;9.222;2024-01-27T10:06:52;102999.84;;;12.80;100.00
32324;BME280;25666;44.350;9.222;2024-01-27T10:09:18;102994.75;;;12.82;100.00
32324;BME280;25666;44.350;9.222;2024-01-27T10:11:46;102988.97;;;12.79;100.00
32324;BME280;25666;44.350;9.222;2024-01-27T10:14:15;102980.06;;;12.77;100.00
32324;BME280;25666;44.350;9.222;2024-01-27T10:16:44;102982.66;;;12.87;100.00
32324;BME280;25666;44.350;9.222;2024-01-27T10:19:19;102983.88;;;12.95;100.00
32324;BME280;25666;44.350;9.222;2024-01-27T10:21:46;102985.84;;;12.94;100.00
32324;BME280;25666;44.350;9.222;2024-01-27T10:24:13;102990.00;;;12.97;100.00
32324;BME280;25666;44.350;9.222;2024-01-27T10:26:39;102985.97;;;12.89;100.00
32324;BME280;25666;44.350;9.222;2024-01-27T10:29:04;102981.91;;;12.95;100.00
32324;BME280;25666;44.350;9.222;2024-01-27T10:31:33;102981.00;;;13.00;100.00
32324;BME280;25666;44.350;9.222;2024-01-27T10:33:59;102979.97;;;13.09;100.00
32324;BME280;25666;44.350;9.222;2024-01-27T10:36:43;102976.94;;;13.06;100.00
32324;BME280;25666;44.350;9.222;2024-01-27T10:39:22;102986.06;;;13.11;100.00
32324;BME280;25666;44.350;9.222;2024-01-27T10:41:49;102983.66;;;13.05;100.00
32324;BME280;25666;44.350;9.222;2024-01-27T10:44:16;102979.22;;;13.17;100.00
32324;BME280;25666;44.350;9.222;2024-01-27T10:46:49;102975.09;;;13.15;100.00
32324;BME280;25666;44.350;9.222;2024-01-27T10:49:18;102979.84;;;13.01;100.00
32324;BME280;25666;44.350;9.222;2024-01-27T10:51:46;102981.69;;;13.05;100.00
32324;BME280;25666;44.350;9.222;2024-01-27T10:54:23;102981.63;;;13.10;100.00
32324;BME280;25666;44.350;9.222;2024-01-27T10:56:53;102985.97;;;13.03;100.00
32324;BME280;25666;44.350;9.222;2024-01-27T10:59:19;102997.03;;;13.08;100.00
32324;BME280;25666;44.350;9.222;2024-01-27T11:01:48;102988.75;;;13.03;100.00
32324;BME280;25666;44.350;9.222;2024-01-27T11:04:17;102991.44;;;13.08;100.00
32324;BME280;25666;44.350;9.222;2024-01-27T11:06:44;102978.59;;;13.07;100.00
32324;BME280;25666;44.350;9.222;2024-01-27T11:09:10;102991.97;;;13.10;100.00
32324;BME280;25666;44.350;9.222;2024-01-27T11:11:38;102975.94;;;13.15;100.00
32324;BME280;25666;44.350;9.222;2024-01-27T11:14:05;102975.47;;;13.22;100.00
32324;BME280;25666;44.350;9.222;2024-01-27T11:16:31;102971.63;;;13.31;100.00
32324;BME280;25666;44.350;9.222;2024-01-27T11:18:57;102978.25;;;13.35;100.00
32324;BME280;25666;44.350;9.222;2024-01-27T11:21:22;102963.00;;;13.41;100.00
32324;BME280;25666;44.350;9.222;2024-01-27T11:23:48;102970.81;;;13.31;100.00
32324;BME280;25666;44.350;9.222;2024-01-27T11:26:23;102966.03;;;13.31;100.00
32324;BME280;25666;44.350;9.222;2024-01-27T11:28:49;102975.03;;;13.28;100.00
32324;BME280;25666;44.350;9.222;2024-01-27T11:31:17;102972.44;;;13.32;100.00
32324;BME280;25666;44.350;9.222;2024-01-27T11:33:46;102966.28;;;13.21;100.00
32324;BME280;25666;44.350;9.222;2024-01-27T11:36:20;102971.66;;;13.18;100.00
32324;BME280;25666;44.350;9.222;2024-01-27T11:38:47;102969.44;;;13.28;100.00
32324;BME280;25666;44.350;9.222;2024-01-27T11:41:22;102962.28;;;13.36;100.00
32324;BME280;25666;44.350;9.222;2024-01-27T11:43:52;102970.28;;;13.29;100.00
32324;BME280;25666;44.350;9.222;2024-01-27T11:46:18;102970.97;;;13.34;100.00
32324;BME280;25666;44.350;9.222;2024-01-27T11:48:44;102965.59;;;13.38;100.00
32324;BME280;25666;44.350;9.222;2024-01-27T11:51:12;102956.91;;;13.39;100.00
32324;BME280;25666;44.350;9.222;2024-01-27T11:53:38;102960.44;;;13.31;100.00
32324;BME280;25666;44.350;9.222;2024-01-27T11:56:04;102961.78;;;13.34;100.00
32324;BME280;25666;44.350;9.222;2024-01-27T11:58:30;102965.59;;;13.38;100.00
32324;BME280;25666;44.350;9.222;2024-01-27T12:00:56;102958.38;;;13.37;100.00
32324;BME280;25666;44.350;9.222;2024-01-27T12:03:23;102956.91;;;13.39;100.00
32324;BME280;25666;44.350;9.222;2024-01-27T12:05:49;102952.34;;;13.44;100.00
32324;BME280;25666;44.350;9.222;2024-01-27T12:08:17;102950.03;;;13.46;100.00
32324;BME280;25666;44.350;9.222;2024-01-27T12:10:43;102952.50;;;13.47;100.00
32324;BME280;25666;44.350;9.222;2024-01-27T12:13:08;102956.84;;;13.31;100.00
32324;BME280;25666;44.350;9.222;2024-01-27T12:15:34;102951.81;;;13.41;100.00
32324;BME280;25666;44.350;9.222;2024-01-27T12:18:00;102955.00;;;13.49;100.00
32324;BME280;25666;44.350;9.222;2024-01-27T12:20:25;102951.88;;;13.50;100.00
32324;BME280;25666;44.350;9.222;2024-01-27T12:23:07;102957.38;;;13.55;100.00
32324;BME280;25666;44.350;9.222;2024-01-27T12:25:33;102949.16;;;13.59;100.00
32324;BME280;25666;44.350;9.222;2024-01-27T12:28:02;102956.59;;;13.63;100.00
32324;BME280;25666;44.350;9.222;2024-01-27T12:30:28;102948.13;;;13.55;100.00
32324;BME280;25666;44.350;9.222;2024-01-27T12:32:53;102948.06;;;13.46;100.00
32324;BME280;25666;44.350;9.222;2024-01-27T12:35:19;102946.28;;;13.50;100.00
32324;BME280;25666;44.350;9.222;2024-01-27T12:37:45;102941.41;;;13.56;100.00
32324;BME280;25666;44.350;9.222;2024-01-27T12:40:20;102945.34;;;13.55;100.00
32324;BME280;25666;44.350;9.222;2024-01-27T12:42:47;102947.94;;;13.51;100.00